Aviation Digital Data Service (ADDS)

Output produced by METARs form (1340 UTC 18 September 2014)
found at http://aviationweather.gov/adds/metars/
 
KINT 181256Z 1813/1912 00000KT 3SM BR BKN015 OVC025 
     FM181430 VRB02KT 6SM BR SCT018 BKN030 
     FM181530 09004KT P6SM BKN045